aviador You're here:

YMHB Decoded Metar

HOBART in AUSTRALIA
Report Time2018-02-22 08:00:00
UTC Time2018-02-22 08:37:41
Flight Rules vfr VFR
Wind140° at 08 kt
W.Decomp.*RWY 12: 8.0 kt HW 0.6 kt RCW
W.Rank140° ranks 17
Current wind is above 140° avg. (7.8)
Visibility9999 m
Phenomena:N/A
Clouds:Few 045 Hf
Expected CloudBase > 4,000 ft AGL from Temp-Dew spread
CeilingNone
Temp21°C (ISA +6)
Dew Point11°C (53% RH)
AAT18.5°C
QNH1015 hPa
Density Alt919 ft
Elevation89 ft
Report Wrong Elevation
Raw Report
YMHB 220800Z 14008KT 9999 FEW045 21/11 Q1015=

Extra information for YMHB:More info

Metar Taf Metar & Taf Last 4 Metars F.Rules Stats Wind Profile Meteogram Temp Stats Airport Information Weather charts Add Link Nearby VenuesMetar ALERT Operation Metar Decoded Social comments